New Bedford, Massachusetts
Current Conditions -  °F | °C
As of 7:53 AM on Monday 22 Dec 2014 (Local Time) from KEWB Reporting Station
Haze Haze  
Wind Chill: 30°   Ceiling: 300
Heat Index: 34°   Visibility: 6mi
Dew Point: 33°   Wind: 5mph
Humidity: 96%   Direction: 10°N
Pressure: 30.35"   Gusts: NA
Location:  41.64°N, 70.93°W
Report Text: KEWB 221253Z 01004KT 6SM BR BKN003 OVC050 01/01 A3035 RMK AO2 SLP280 T00110006
Loading
Personal Weather Stations






























Interactive Weather Map New forecast layout! Learn more

10-Day Weather Forecast

Advertisements
Track Severe Weather on mobile